Time;durP1;ratioP1;P1;durP2;ratioP2;P2;SDS_P1;SDS_P2;PMS_P1;PMS_P2;Temp;Humidity;BMP_temperature;BMP_pressure;BME280_temperature;BME280_humidity;BME280_pressure;Samples;Min_cycle;Max_cycle;Signal;HPM_P1;HPM_P2
2022/11/29 00:01:39;;;;;;;1.80;0.80;;;6.50;99.90;;;;;;5159104;27;20442;-75
2022/11/29 00:04:06;;;;;;;3.83;0.90;;;6.50;99.90;;;;;;5158641;27;20826;-75
2022/11/29 00:06:34;;;;;;;0.60;0.60;;;6.50;99.90;;;;;;5158876;27;20477;-75
2022/11/29 00:09:05;;;;;;;0.40;0.40;;;6.50;99.90;;;;;;5158633;27;20446;-75
2022/11/29 00:14:21;;;;;;;0.70;0.70;;;6.40;99.90;;;;;;5158405;27;20939;-75
2022/11/29 00:16:51;;;;;;;1.20;1.20;;;6.40;99.90;;;;;;5158540;27;20441;-75
2022/11/29 00:19:18;;;;;;;1.70;1.07;;;6.40;99.90;;;;;;5158916;27;20526;-75
2022/11/29 00:21:45;;;;;;;0.80;0.80;;;6.50;99.90;;;;;;5158423;27;20445;-75
2022/11/29 00:24:12;;;;;;;0.70;0.70;;;6.50;99.90;;;;;;5158564;27;20465;-75
2022/11/29 00:26:39;;;;;;;5.70;1.00;;;6.50;99.90;;;;;;5158303;27;20474;-75
2022/11/29 00:29:06;;;;;;;1.60;0.60;;;6.50;99.90;;;;;;5158206;27;20445;-75
2022/11/29 00:31:34;;;;;;;0.77;0.77;;;6.50;99.90;;;;;;5158221;27;20525;-75
2022/11/29 00:34:03;;;;;;;3.90;1.37;;;6.50;99.90;;;;;;5158631;27;20446;-75
2022/11/29 00:36:30;;;;;;;1.03;0.53;;;6.50;99.90;;;;;;5158140;27;20438;-75
2022/11/29 00:38:57;;;;;;;0.70;0.63;;;6.50;99.90;;;;;;5158059;27;20438;-76
2022/11/29 00:41:24;;;;;;;2.40;0.63;;;6.50;99.90;;;;;;5158006;27;20824;-76
2022/11/29 00:43:51;;;;;;;1.43;1.07;;;6.40;99.90;;;;;;5157861;27;20446;-76
2022/11/29 00:46:17;;;;;;;1.53;1.00;;;6.40;99.90;;;;;;5157817;27;20859;-76
2022/11/29 00:48:46;;;;;;;1.30;1.10;;;6.40;99.90;;;;;;5157869;27;20475;-75
2022/11/29 00:51:13;;;;;;;1.60;0.70;;;6.40;99.90;;;;;;5157693;27;20461;-76
2022/11/29 00:53:39;;;;;;;1.30;0.67;;;6.40;99.90;;;;;;5157457;27;20448;-75
2022/11/29 00:56:07;;;;;;;0.60;0.60;;;6.50;99.90;;;;;;5157342;27;20960;-75
2022/11/29 00:58:35;;;;;;;0.40;0.40;;;6.50;99.90;;;;;;5157720;27;20627;-75
2022/11/29 01:01:02;;;;;;;0.70;0.60;;;6.40;99.90;;;;;;5157323;27;20812;-75
2022/11/29 01:03:29;;;;;;;0.90;0.70;;;6.40;99.90;;;;;;5157621;27;20438;-75
2022/11/29 01:06:02;;;;;;;2.37;1.43;;;6.40;99.90;;;;;;5157400;27;20568;-75
2022/11/29 01:08:29;;;;;;;2.60;1.50;;;6.40;99.90;;;;;;5157527;27;20422;-75
2022/11/29 01:11:05;;;;;;;1.53;0.70;;;6.40;99.90;;;;;;5157445;27;20449;-75
2022/11/29 01:13:32;;;;;;;1.90;0.80;;;6.40;99.90;;;;;;5157392;27;20449;-75
2022/11/29 01:15:59;;;;;;;0.40;0.30;;;6.50;99.90;;;;;;5156988;27;20872;-75
2022/11/29 01:18:26;;;;;;;2.53;0.60;;;6.50;99.90;;;;;;5157351;27;20438;-75
2022/11/29 01:21:06;;;;;;;1.03;0.67;;;6.50;99.90;;;;;;5157077;27;20465;-75
2022/11/29 01:23:33;;;;;;;0.50;0.50;;;6.40;99.90;;;;;;5157213;27;20426;-75
2022/11/29 01:26:03;;;;;;;0.50;0.50;;;6.50;99.90;;;;;;5157047;27;20919;-75
2022/11/29 01:28:30;;;;;;;3.23;0.60;;;6.50;99.90;;;;;;5157387;27;20444;-75
2022/11/29 01:30:57;;;;;;;1.07;0.43;;;6.50;99.90;;;;;;5157049;27;20446;-75
2022/11/29 01:33:24;;;;;;;0.77;0.50;;;6.50;99.90;;;;;;5157597;27;20446;-75
2022/11/29 01:35:52;;;;;;;0.87;0.70;;;6.50;99.90;;;;;;5157112;27;20467;-75
2022/11/29 01:38:22;;;;;;;0.40;0.40;;;6.50;99.90;;;;;;5156956;27;20932;-75
2022/11/29 01:40:57;;;;;;;1.53;0.57;;;6.50;99.90;;;;;;5156558;27;20442;-75
2022/11/29 01:43:24;;;;;;;0.70;0.30;;;6.50;99.90;;;;;;5156837;27;20826;-75
2022/11/29 01:45:51;;;;;;;0.90;0.60;;;6.60;99.90;;;;;;5156678;27;20833;-75
2022/11/29 01:48:20;;;;;;;0.40;0.40;;;6.60;99.90;;;;;;5156764;27;20803;-75
2022/11/29 01:50:46;;;;;;;0.67;0.50;;;6.60;99.90;;;;;;5156695;27;20495;-75
2022/11/29 01:53:15;;;;;;;3.57;1.80;;;6.50;99.90;;;;;;5156595;27;20450;-75
2022/11/29 01:55:47;;;;;;;0.50;0.50;;;6.50;99.90;;;;;;5156503;27;20458;-75
2022/11/29 01:58:15;;;;;;;0.93;0.47;;;6.50;99.90;;;;;;5156555;27;20452;-75
2022/11/29 02:00:42;;;;;;;0.60;0.60;;;6.40;99.90;;;;;;5156535;27;20433;-75
2022/11/29 02:03:11;;;;;;;0.40;0.40;;;6.50;99.90;;;;;;5156430;27;20437;-75
2022/11/29 02:05:39;;;;;;;0.60;0.60;;;6.50;99.90;;;;;;5155327;27;20490;-75
2022/11/29 02:08:08;;;;;;;0.47;0.47;;;6.50;99.90;;;;;;5156307;27;20451;-75
2022/11/29 02:10:49;;;;;;;0.30;0.30;;;6.50;99.90;;;;;;5156257;27;20446;-75
2022/11/29 02:13:25;;;;;;;0.30;0.30;;;6.50;99.90;;;;;;5155952;27;20799;-75
2022/11/29 02:15:59;;;;;;;0.53;0.30;;;6.50;99.90;;;;;;5155820;27;20461;-75
2022/11/29 02:18:36;;;;;;;0.40;0.40;;;6.50;99.90;;;;;;5156192;27;20429;-75
2022/11/29 02:21:28;;;;;;;0.50;0.40;;;6.50;99.90;;;;;;5155874;27;20828;-75
2022/11/29 02:24:21;;;;;;;0.47;0.47;;;6.50;99.90;;;;;;5155978;27;20816;-75
2022/11/29 02:27:25;;;;;;;0.40;0.40;;;6.50;99.90;;;;;;5156243;27;20477;-75
2022/11/29 02:30:08;;;;;;;0.60;0.60;;;6.60;99.90;;;;;;5155963;27;20901;-75
2022/11/29 02:33:26;;;;;;;3.13;0.43;;;6.60;99.90;;;;;;5155904;27;20426;-75
2022/11/29 02:36:18;;;;;;;0.40;0.40;;;6.60;99.90;;;;;;5091854;28;20471;-75
2022/11/29 02:39:20;;;;;;;0.80;0.40;;;6.60;99.90;;;;;;5091887;28;20537;-75
2022/11/29 02:41:58;;;;;;;0.60;0.60;;;6.60;99.90;;;;;;5145911;27;20453;-75
2022/11/29 02:44:56;;;;;;;0.50;0.50;;;6.50;99.90;;;;;;5155660;27;20457;-75
2022/11/29 02:47:32;;;;;;;0.40;0.40;;;6.60;99.90;;;;;;5155599;27;20458;-75
2022/11/29 02:50:28;;;;;;;0.40;0.40;;;6.60;99.90;;;;;;5155579;27;20440;-75
2022/11/29 02:53:06;;;;;;;0.60;0.40;;;6.60;99.90;;;;;;5154277;27;20457;-75
2022/11/29 02:55:41;;;;;;;0.40;0.40;;;6.60;99.90;;;;;;5155160;27;20987;-75
2022/11/29 02:58:17;;;;;;;0.50;0.30;;;6.60;99.90;;;;;;5155856;27;20421;-75
2022/11/29 03:00:53;;;;;;;10.00;0.77;;;6.60;99.90;;;;;;5155065;27;20912;-75
2022/11/29 03:03:24;;;;;;;0.40;0.40;;;6.60;99.90;;;;;;5155300;27;20454;-75
2022/11/29 03:05:59;;;;;;;0.40;0.40;;;6.60;99.90;;;;;;5155440;27;20493;-75
2022/11/29 03:08:33;;;;;;;0.40;0.30;;;6.60;99.90;;;;;;5155314;27;20437;-75
2022/11/29 03:11:08;;;;;;;4.00;1.20;;;6.60;99.90;;;;;;5155019;27;20430;-75
2022/11/29 03:13:48;;;;;;;1.13;0.63;;;6.60;99.90;;;;;;5154946;27;20927;-73
2022/11/29 03:16:28;;;;;;;0.30;0.30;;;6.60;99.90;;;;;;5155263;27;20421;-73
2022/11/29 03:19:05;;;;;;;0.43;0.43;;;6.60;99.90;;;;;;5154842;27;20425;-72
2022/11/29 03:21:45;;;;;;;0.70;0.40;;;6.60;99.90;;;;;;5154917;27;20962;-73
2022/11/29 03:24:25;;;;;;;0.57;0.47;;;6.70;99.90;;;;;;5155103;27;20461;-73
2022/11/29 03:26:59;;;;;;;0.40;0.40;;;6.70;99.90;;;;;;5155057;27;20834;-73
2022/11/29 03:29:32;;;;;;;1.57;0.70;;;6.60;99.90;;;;;;5155052;27;20433;-73
2022/11/29 03:32:07;;;;;;;0.30;0.30;;;6.60;99.90;;;;;;5155102;27;20525;-73
2022/11/29 03:34:54;;;;;;;2.00;0.40;;;6.60;99.90;;;;;;5154702;27;20979;-73
2022/11/29 03:37:27;;;;;;;0.33;0.27;;;6.60;99.90;;;;;;5154763;27;20433;-73
2022/11/29 03:40:02;;;;;;;0.30;0.30;;;6.60;99.90;;;;;;5155043;27;20437;-73
2022/11/29 03:42:34;;;;;;;0.47;0.47;;;6.60;99.90;;;;;;5154691;27;21007;-72
2022/11/29 03:45:07;;;;;;;0.50;0.40;;;6.60;99.90;;;;;;5155710;27;20465;-75
2022/11/29 03:47:38;;;;;;;0.30;0.30;;;6.60;99.90;;;;;;5154859;27;20457;-75
2022/11/29 03:50:07;;;;;;;0.43;0.43;;;6.60;99.90;;;;;;5155746;27;20482;-75
2022/11/29 03:52:38;;;;;;;0.40;0.40;;;6.70;99.90;;;;;;5154878;27;20441;-75
2022/11/29 03:55:23;;;;;;;0.37;0.27;;;6.60;99.90;;;;;;5154837;27;20462;-75
2022/11/29 03:58:04;;;;;;;0.53;0.53;;;6.70;99.90;;;;;;5155416;27;20430;-75
2022/11/29 04:00:52;;;;;;;0.60;0.60;;;6.70;99.90;;;;;;5154538;27;20897;-75
2022/11/29 04:03:40;;;;;;;1.70;0.50;;;6.60;99.90;;;;;;5154809;27;20444;-75
2022/11/29 04:06:27;;;;;;;0.33;0.30;;;6.60;99.90;;;;;;5154646;27;20457;-75
2022/11/29 04:09:24;;;;;;;0.50;0.50;;;6.50;99.90;;;;;;5154762;27;20429;-75
2022/11/29 04:12:20;;;;;;;0.30;0.30;;;6.50;99.90;;;;;;5154978;27;20425;-75
2022/11/29 04:15:20;;;;;;;0.30;0.30;;;6.60;99.90;;;;;;5154594;27;20461;-75
2022/11/29 04:18:10;;;;;;;1.13;0.30;;;6.60;99.90;;;;;;5154559;27;20441;-75
2022/11/29 04:20:54;;;;;;;0.40;0.40;;;6.60;99.90;;;;;;5154349;27;20474;-75
2022/11/29 04:23:43;;;;;;;0.40;0.30;;;6.50;99.90;;;;;;5154593;27;20418;-76
2022/11/29 04:26:37;;;;;;;0.40;0.30;;;6.60;99.90;;;;;;5154101;27;20473;-76
2022/11/29 04:29:18;;;;;;;1.23;0.40;;;6.50;99.90;;;;;;5155133;27;20451;-76
2022/11/29 04:32:04;;;;;;;0.30;0.30;;;6.60;99.90;;;;;;5158311;27;20429;-75
2022/11/29 04:35:14;;;;;;;0.80;0.40;;;6.60;99.90;;;;;;5157852;27;20454;-76
2022/11/29 04:38:21;;;;;;;0.60;0.47;;;6.60;99.90;;;;;;5157866;27;20415;-75
2022/11/29 04:41:09;;;;;;;1.27;1.27;;;6.60;99.90;;;;;;5158063;27;20456;-75
2022/11/29 04:43:55;;;;;;;0.57;0.40;;;6.60;99.90;;;;;;5158173;27;20437;-76
2022/11/29 04:46:38;;;;;;;0.50;0.40;;;6.70;99.90;;;;;;5157429;27;21010;-75
2022/11/29 04:49:37;;;;;;;1.33;0.37;;;6.60;99.90;;;;;;5157864;27;20905;-76
2022/11/29 04:52:31;;;;;;;0.40;0.40;;;6.60;99.90;;;;;;5157708;27;20931;-76
2022/11/29 04:55:10;;;;;;;0.80;0.80;;;6.60;99.90;;;;;;5157761;27;20461;-75
2022/11/29 04:57:43;;;;;;;0.37;0.30;;;6.60;99.90;;;;;;5157879;27;20426;-76
2022/11/29 05:00:11;;;;;;;0.40;0.40;;;6.60;99.90;;;;;;5157711;27;20437;-76
2022/11/29 05:02:47;;;;;;;0.50;0.50;;;6.60;99.90;;;;;;5158642;27;20450;-76
2022/11/29 05:05:23;;;;;;;0.30;0.30;;;6.60;99.90;;;;;;5157574;27;20464;-75
2022/11/29 05:08:01;;;;;;;7.27;0.53;;;6.60;99.90;;;;;;5157528;27;20894;-76
2022/11/29 05:10:33;;;;;;;0.80;0.50;;;6.50;99.90;;;;;;5157228;27;20952;-76
2022/11/29 05:13:10;;;;;;;0.47;0.40;;;6.60;99.90;;;;;;5157509;27;20434;-75
2022/11/29 05:16:02;;;;;;;0.40;0.40;;;6.60;99.90;;;;;;5157347;27;20457;-76
2022/11/29 05:18:52;;;;;;;0.97;0.40;;;6.70;99.90;;;;;;5157051;27;20889;-76
2022/11/29 05:21:29;;;;;;;0.30;0.30;;;6.60;99.90;;;;;;5157294;27;20434;-76
2022/11/29 05:24:06;;;;;;;5.20;0.40;;;6.70;99.90;;;;;;5156926;27;20418;-76
2022/11/29 05:26:43;;;;;;;0.50;0.50;;;6.60;99.90;;;;;;5156915;27;20972;-76
2022/11/29 05:29:12;;;;;;;0.37;0.30;;;6.60;99.90;;;;;;5156892;27;20428;-76
2022/11/29 05:31:55;;;;;;;0.40;0.30;;;6.50;99.90;;;;;;5157149;27;20444;-76
2022/11/29 05:34:37;;;;;;;0.30;0.30;;;6.60;99.90;;;;;;5157010;27;20471;-75
2022/11/29 05:37:19;;;;;;;0.40;0.30;;;6.60;99.90;;;;;;5157302;27;20423;-75
2022/11/29 05:40:00;;;;;;;0.50;0.40;;;6.60;99.90;;;;;;5156919;27;20517;-76
2022/11/29 05:42:45;;;;;;;0.30;0.30;;;6.60;99.90;;;;;;5156910;27;20430;-75
2022/11/29 05:45:18;;;;;;;0.50;0.30;;;6.60;99.90;;;;;;5157029;27;20476;-76
2022/11/29 05:47:52;;;;;;;0.40;0.40;;;6.60;99.90;;;;;;5156774;27;20461;-76
2022/11/29 05:50:26;;;;;;;0.47;0.47;;;6.60;99.90;;;;;;5156759;27;20421;-76
2022/11/29 05:52:59;;;;;;;0.70;0.60;;;6.60;99.90;;;;;;5156426;27;20896;-76
2022/11/29 05:55:39;;;;;;;0.40;0.40;;;6.50;99.90;;;;;;5156602;27;20465;-76
2022/11/29 05:58:19;;;;;;;0.83;0.40;;;6.60;99.90;;;;;;5156315;27;20433;-76
2022/11/29 06:00:51;;;;;;;2.20;0.33;;;6.60;99.90;;;;;;5156530;27;20490;-75
2022/11/29 06:03:24;;;;;;;0.40;0.30;;;6.60;99.90;;;;;;5156492;27;20430;-76
2022/11/29 06:05:59;;;;;;;0.30;0.30;;;6.60;99.90;;;;;;5156375;27;20462;-76
2022/11/29 06:08:36;;;;;;;0.83;0.83;;;6.60;99.90;;;;;;5156342;27;20533;-76
2022/11/29 06:11:06;;;;;;;0.30;0.30;;;6.70;99.90;;;;;;5156002;27;20426;-76
2022/11/29 06:13:45;;;;;;;0.90;0.40;;;6.70;99.90;;;;;;5156282;27;20429;-76
2022/11/29 06:16:34;;;;;;;0.30;0.30;;;6.70;99.90;;;;;;5156234;27;20438;-76
2022/11/29 06:19:39;;;;;;;0.87;0.73;;;6.70;99.90;;;;;;5155801;27;20426;-76
2022/11/29 06:22:34;;;;;;;0.30;0.30;;;6.70;99.90;;;;;;5156155;27;20437;-76
2022/11/29 06:25:17;;;;;;;0.30;0.30;;;6.70;99.90;;;;;;5155512;27;20495;-76
2022/11/29 06:28:08;;;;;;;0.50;0.40;;;6.70;99.90;;;;;;5156491;27;20469;-76
2022/11/29 06:30:52;;;;;;;4.77;0.60;;;6.70;99.90;;;;;;5155950;27;20512;-76
2022/11/29 06:33:23;;;;;;;0.30;0.20;;;6.70;99.90;;;;;;5156453;27;20434;-76
2022/11/29 06:35:56;;;;;;;0.30;0.30;;;6.70;99.90;;;;;;5155771;27;20828;-76
2022/11/29 06:38:27;;;;;;;0.40;0.40;;;6.70;99.90;;;;;;5155838;27;20455;-76
2022/11/29 06:40:55;;;;;;;0.30;0.30;;;6.70;99.90;;;;;;5155485;27;20947;-76
2022/11/29 06:43:24;;;;;;;0.70;0.70;;;6.70;99.90;;;;;;5155677;27;20446;-76
2022/11/29 06:45:55;;;;;;;0.73;0.40;;;6.70;99.90;;;;;;5155460;27;20526;-76
2022/11/29 06:48:26;;;;;;;0.30;0.30;;;6.70;99.90;;;;;;5155584;27;20461;-76
2022/11/29 06:51:00;;;;;;;0.30;0.30;;;6.70;99.90;;;;;;5155578;27;20434;-76
2022/11/29 06:53:38;;;;;;;0.40;0.40;;;6.70;99.90;;;;;;5155171;27;20835;-76
2022/11/29 06:56:13;;;;;;;0.40;0.30;;;6.70;99.90;;;;;;5155468;27;20464;-76
2022/11/29 06:58:49;;;;;;;0.30;0.20;;;6.70;99.90;;;;;;5155313;27;20428;-76
2022/11/29 07:01:27;;;;;;;0.30;0.30;;;6.70;99.90;;;;;;5155164;27;20430;-76
2022/11/29 07:04:18;;;;;;;0.60;0.50;;;6.70;99.90;;;;;;5155343;27;20457;-76
2022/11/29 07:06:45;;;;;;;1.57;0.60;;;6.70;99.90;;;;;;5154993;27;20932;-76
2022/11/29 07:09:16;;;;;;;0.90;0.40;;;6.80;99.90;;;;;;5155555;27;20479;-76
2022/11/29 07:11:44;;;;;;;0.40;0.40;;;6.80;99.90;;;;;;5155359;27;20426;-76
2022/11/29 07:14:12;;;;;;;0.53;0.30;;;6.80;99.90;;;;;;5155184;27;20823;-76
2022/11/29 07:16:46;;;;;;;0.60;0.60;;;6.80;99.90;;;;;;5155255;27;20442;-76
2022/11/29 07:19:20;;;;;;;0.40;0.30;;;6.80;99.90;;;;;;5155182;27;20477;-76
2022/11/29 07:21:55;;;;;;;0.40;0.30;;;6.80;99.90;;;;;;5155243;27;20426;-75
2022/11/29 07:24:44;;;;;;;0.80;0.50;;;6.80;99.90;;;;;;5155090;27;20461;-76
2022/11/29 07:27:17;;;;;;;0.60;0.60;;;6.80;99.90;;;;;;5155868;27;20466;-76
2022/11/29 07:29:53;;;;;;;0.40;0.40;;;6.80;99.90;;;;;;5154846;27;20889;-76
2022/11/29 07:32:28;;;;;;;0.30;0.30;;;6.80;99.90;;;;;;5154774;27;20433;-76
2022/11/29 07:35:04;;;;;;;0.40;0.40;;;6.80;99.90;;;;;;5154667;27;20996;-76
2022/11/29 07:37:39;;;;;;;0.90;0.43;;;6.80;99.90;;;;;;5155044;27;20422;-76
2022/11/29 07:40:15;;;;;;;0.63;0.40;;;6.80;99.90;;;;;;5155062;27;20425;-76
2022/11/29 07:42:52;;;;;;;0.50;0.40;;;6.80;99.90;;;;;;5155011;27;20433;-76
2022/11/29 07:45:24;;;;;;;0.30;0.30;;;6.80;99.90;;;;;;5154865;27;20466;-76
2022/11/29 07:47:51;;;;;;;0.80;0.40;;;6.80;99.90;;;;;;5154836;27;20469;-76
2022/11/29 07:50:18;;;;;;;1.03;0.33;;;6.90;99.90;;;;;;5154508;27;20960;-75
2022/11/29 07:52:46;;;;;;;0.40;0.40;;;6.90;99.90;;;;;;5154419;27;20450;-75
2022/11/29 07:55:16;;;;;;;1.27;0.40;;;6.90;99.90;;;;;;5154772;27;20454;-78
2022/11/29 07:57:43;;;;;;;1.10;0.40;;;6.90;99.90;;;;;;5153185;27;20797;-75
2022/11/29 08:00:11;;;;;;;0.47;0.47;;;7.00;99.90;;;;;;5154671;27;20453;-75
2022/11/29 08:02:37;;;;;;;0.40;0.40;;;7.00;99.90;;;;;;5153125;27;20446;-75
2022/11/29 08:05:05;;;;;;;0.30;0.30;;;7.00;99.90;;;;;;5156824;27;20462;-75
2022/11/29 08:07:34;;;;;;;0.80;0.80;;;7.00;99.90;;;;;;5157194;27;20477;-75
2022/11/29 08:10:00;;;;;;;0.40;0.40;;;7.00;99.90;;;;;;5158957;27;20444;-75
2022/11/29 08:12:29;;;;;;;0.47;0.33;;;7.00;99.90;;;;;;5158374;27;20447;-76
2022/11/29 08:14:55;;;;;;;0.30;0.30;;;7.10;99.90;;;;;;5158235;27;21079;-76
2022/11/29 08:17:23;;;;;;;2.57;0.50;;;7.10;99.90;;;;;;5158253;27;20936;-75
2022/11/29 08:19:50;;;;;;;0.40;0.40;;;7.10;99.90;;;;;;5158175;27;20484;-75
2022/11/29 08:22:17;;;;;;;0.43;0.40;;;7.10;99.90;;;;;;5158732;27;20448;-75
2022/11/29 08:24:44;;;;;;;0.50;0.37;;;7.10;99.90;;;;;;5158417;27;20469;-79
2022/11/29 08:27:10;;;;;;;0.30;0.30;;;7.10;99.90;;;;;;5158262;27;20451;-78
2022/11/29 08:29:39;;;;;;;0.73;0.73;;;7.20;99.90;;;;;;5157967;27;20975;-81
2022/11/29 08:32:06;;;;;;;0.50;0.50;;;7.20;99.90;;;;;;5158177;27;20448;-79
2022/11/29 08:34:32;;;;;;;0.50;0.50;;;7.20;99.90;;;;;;5157861;27;20980;-79
2022/11/29 08:36:59;;;;;;;3.07;0.57;;;7.20;99.90;;;;;;5157925;27;20908;-78
2022/11/29 08:39:26;;;;;;;0.37;0.33;;;7.20;99.90;;;;;;5157349;27;20805;-77
2022/11/29 08:41:53;;;;;;;0.30;0.30;;;7.30;99.90;;;;;;5157747;27;20794;-81
2022/11/29 08:44:19;;;;;;;2.43;0.50;;;7.30;99.90;;;;;;5157958;27;20469;-78
2022/11/29 08:49:32;;;;;;;0.43;0.40;;;7.20;99.90;;;;;;5158056;27;20459;-81
2022/11/29 08:54:39;;;;;;;0.30;0.30;;;7.30;99.90;;;;;;5157175;27;20534;-76
2022/11/29 08:57:06;;;;;;;0.40;0.40;;;7.30;99.90;;;;;;5157465;27;20963;-76
2022/11/29 08:59:33;;;;;;;0.83;0.40;;;7.30;99.90;;;;;;5157723;27;20441;-76
2022/11/29 09:02:01;;;;;;;0.30;0.30;;;7.30;99.90;;;;;;5157886;27;20458;-76
2022/11/29 09:04:28;;;;;;;0.63;0.40;;;7.30;99.90;;;;;;5157541;27;20980;-76
2022/11/29 09:06:54;;;;;;;0.80;0.40;;;7.30;99.90;;;;;;5157352;27;20449;-76
2022/11/29 09:09:21;;;;;;;0.40;0.30;;;7.30;99.90;;;;;;5157156;27;20480;-76
2022/11/29 09:11:48;;;;;;;0.53;0.53;;;7.30;99.90;;;;;;5157140;27;20932;-76
2022/11/29 09:14:17;;;;;;;0.30;0.30;;;7.30;99.90;;;;;;5157294;27;21000;-76
2022/11/29 09:16:44;;;;;;;1.07;0.67;;;7.40;99.90;;;;;;5157054;27;20445;-76
2022/11/29 09:19:14;;;;;;;0.30;0.20;;;7.40;99.90;;;;;;5157125;27;20446;-76
2022/11/29 09:21:41;;;;;;;0.50;0.40;;;7.40;99.90;;;;;;5157354;27;20423;-76
2022/11/29 09:24:09;;;;;;;0.53;0.50;;;7.40;99.90;;;;;;5157174;27;20454;-76
2022/11/29 09:26:36;;;;;;;0.30;0.30;;;7.40;99.90;;;;;;5157103;27;20442;-76
2022/11/29 09:29:05;;;;;;;0.80;0.80;;;7.40;99.90;;;;;;5155899;27;20826;-76
2022/11/29 09:31:33;;;;;;;0.33;0.33;;;7.40;99.90;;;;;;5157112;27;20528;-76
2022/11/29 09:34:00;;;;;;;0.37;0.37;;;7.50;99.90;;;;;;5156986;27;20453;-79
2022/11/29 09:36:29;;;;;;;0.33;0.33;;;7.40;99.90;;;;;;5157058;27;20446;-79
2022/11/29 09:38:56;;;;;;;0.70;0.50;;;7.40;99.90;;;;;;5156668;27;20787;-79
2022/11/29 09:41:58;;;;;;;0.60;0.30;;;7.40;99.90;;;;;;5156868;27;20448;-79
2022/11/29 09:44:37;;;;;;;0.70;0.30;;;7.40;99.90;;;;;;5156454;27;21007;-81
2022/11/29 09:47:18;;;;;;;0.40;0.40;;;7.40;99.90;;;;;;5156536;27;20913;-79
2022/11/29 09:49:55;;;;;;;0.87;0.33;;;7.40;99.90;;;;;;5156772;27;20830;-79
2022/11/29 09:52:36;;;;;;;0.30;0.30;;;7.40;99.90;;;;;;5156780;27;20426;-79
2022/11/29 09:55:16;;;;;;;0.30;0.30;;;7.40;99.90;;;;;;5156910;27;20458;-79
2022/11/29 09:57:44;;;;;;;0.57;0.40;;;7.40;99.90;;;;;;5156873;27;20426;-79
2022/11/29 10:00:16;;;;;;;3.10;0.60;;;7.40;99.90;;;;;;5156534;27;20834;-79
2022/11/29 10:02:47;;;;;;;0.50;0.50;;;7.50;99.90;;;;;;5156533;27;20440;-79
2022/11/29 10:05:21;;;;;;;0.97;0.40;;;7.50;99.90;;;;;;5156103;27;20465;-79
2022/11/29 10:07:55;;;;;;;3.23;0.43;;;7.50;99.90;;;;;;5156378;27;20473;-79
2022/11/29 10:10:27;;;;;;;0.70;0.50;;;7.50;99.90;;;;;;5156053;27;20426;-79
2022/11/29 10:12:56;;;;;;;2.63;0.60;;;7.50;99.90;;;;;;5156049;27;20418;-79
2022/11/29 10:15:26;;;;;;;0.83;0.60;;;7.50;99.90;;;;;;5156157;27;20466;-79
2022/11/29 10:17:57;;;;;;;0.90;0.40;;;7.40;99.90;;;;;;5156232;27;20442;-79
2022/11/29 10:20:26;;;;;;;0.30;0.30;;;7.40;99.90;;;;;;5155996;27;20512;-79
2022/11/29 10:22:59;;;;;;;0.57;0.57;;;7.40;99.90;;;;;;5156112;27;20438;-79
2022/11/29 10:25:30;;;;;;;0.70;0.60;;;7.40;99.90;;;;;;5155999;27;20462;-79
2022/11/29 10:27:58;;;;;;;0.60;0.60;;;7.40;99.90;;;;;;5155221;27;20826;-79
2022/11/29 10:30:25;;;;;;;0.40;0.40;;;7.50;99.90;;;;;;5155974;27;20450;-79
2022/11/29 10:32:56;;;;;;;0.70;0.60;;;7.50;99.90;;;;;;5156470;27;20441;-79
2022/11/29 10:35:24;;;;;;;0.60;0.30;;;7.50;99.90;;;;;;5155894;27;20465;-81
2022/11/29 10:37:53;;;;;;;0.60;0.50;;;7.50;99.90;;;;;;5155812;27;20442;-79
2022/11/29 10:40:30;;;;;;;0.50;0.40;;;7.50;99.90;;;;;;5155759;27;20442;-79
2022/11/29 10:42:57;;;;;;;1.00;0.47;;;7.50;99.90;;;;;;5156627;27;20433;-79
2022/11/29 10:45:28;;;;;;;0.70;0.40;;;7.50;99.90;;;;;;5155630;27;20472;-79
2022/11/29 10:47:58;;;;;;;0.73;0.70;;;7.50;99.90;;;;;;5155602;27;21004;-79
2022/11/29 10:50:27;;;;;;;0.50;0.30;;;7.60;99.90;;;;;;5155590;27;20975;-79
2022/11/29 10:52:57;;;;;;;0.40;0.40;;;7.60;99.90;;;;;;5155567;27;20438;-79
2022/11/29 10:55:27;;;;;;;1.47;0.47;;;7.70;99.90;;;;;;5155147;27;20461;-79
2022/11/29 10:58:09;;;;;;;0.30;0.30;;;7.60;99.90;;;;;;5155218;27;20788;-79
2022/11/29 11:00:44;;;;;;;0.40;0.40;;;7.60;99.90;;;;;;5155167;27;20784;-79
2022/11/29 11:03:24;;;;;;;1.27;0.57;;;7.70;99.90;;;;;;5155162;27;20765;-79
2022/11/29 11:06:03;;;;;;;0.77;0.30;;;7.70;99.90;;;;;;5155035;27;20972;-79
2022/11/29 11:08:31;;;;;;;0.40;0.33;;;7.70;99.90;;;;;;5155473;27;20469;-79
2022/11/29 11:11:01;;;;;;;1.90;0.60;;;7.60;99.90;;;;;;5154992;27;20992;-79
2022/11/29 11:13:30;;;;;;;0.47;0.47;;;7.60;99.90;;;;;;5155301;27;20446;-79
2022/11/29 11:15:58;;;;;;;1.50;0.50;;;7.60;99.90;;;;;;5155207;27;20487;-79
2022/11/29 11:18:28;;;;;;;1.80;0.83;;;7.60;99.90;;;;;;5155240;27;20433;-79
2022/11/29 11:20:58;;;;;;;0.63;0.50;;;7.60;99.90;;;;;;5154986;27;20514;-77
2022/11/29 11:23:28;;;;;;;0.40;0.40;;;7.60;99.90;;;;;;5154854;27;20445;-77
2022/11/29 11:26:04;;;;;;;7.47;0.57;;;7.60;99.90;;;;;;5155417;27;20466;-77
2022/11/29 11:28:36;;;;;;;2.10;2.00;;;7.60;99.90;;;;;;5154723;27;20963;-77
2022/11/29 11:31:07;;;;;;;2.77;1.40;;;7.60;99.90;;;;;;5155124;27;20437;-77
2022/11/29 11:33:36;;;;;;;3.10;1.63;;;7.60;99.90;;;;;;5154803;27;20908;-77
2022/11/29 11:36:07;;;;;;;0.80;0.63;;;7.70;99.90;;;;;;5154959;27;20458;-77
2022/11/29 11:38:36;;;;;;;1.23;0.43;;;7.70;99.90;;;;;;5156682;27;20433;-79
2022/11/29 11:44:26;;;;;;;0.50;0.50;;;7.70;99.90;;;;;;5148417;27;20449;-78
2022/11/29 11:46:53;;;;;;;0.77;0.60;;;7.70;99.90;;;;;;5159194;27;20418;-79
2022/11/29 11:49:27;;;;;;;0.60;0.50;;;7.70;99.90;;;;;;5158788;27;20473;-78
2022/11/29 11:51:53;;;;;;;0.40;0.40;;;7.70;99.90;;;;;;5158783;27;20807;-78
2022/11/29 11:54:20;;;;;;;0.80;0.60;;;7.70;99.90;;;;;;5159021;27;20461;-79
2022/11/29 11:56:49;;;;;;;0.70;0.70;;;7.70;99.90;;;;;;5158807;27;20428;-79
2022/11/29 11:59:19;;;;;;;0.83;0.40;;;7.70;99.90;;;;;;5158639;27;20815;-78
2022/11/29 12:01:46;;;;;;;0.60;0.53;;;7.70;99.90;;;;;;5158631;27;20787;-79
2022/11/29 12:04:17;;;;;;;0.50;0.40;;;7.70;99.90;;;;;;5158649;27;20500;-79
2022/11/29 12:06:50;;;;;;;0.87;0.50;;;7.70;99.90;;;;;;5159097;27;20453;-79
2022/11/29 12:09:30;;;;;;;0.50;0.40;;;7.70;99.90;;;;;;5159014;27;20468;-79
2022/11/29 12:12:10;;;;;;;0.30;0.30;;;7.70;99.90;;;;;;5158778;27;20950;-80
2022/11/29 12:14:48;;;;;;;1.07;0.53;;;7.70;99.90;;;;;;5158267;27;20847;-80
2022/11/29 12:17:21;;;;;;;4.40;0.77;;;7.80;99.90;;;;;;5158641;27;20436;-80
2022/11/29 12:20:04;;;;;;;1.27;0.60;;;7.80;99.90;;;;;;5158046;27;21012;-81
2022/11/29 12:22:37;;;;;;;0.83;0.80;;;7.80;99.90;;;;;;5158528;27;20426;-78
2022/11/29 12:25:11;;;;;;;1.63;0.60;;;7.80;99.90;;;;;;5158361;27;20534;-78
2022/11/29 12:27:39;;;;;;;0.97;0.93;;;7.80;99.90;;;;;;5158132;27;20437;-78
2022/11/29 12:30:12;;;;;;;0.40;0.40;;;7.80;99.90;;;;;;5158262;27;20850;-78
2022/11/29 12:32:56;;;;;;;1.67;0.97;;;7.80;99.90;;;;;;5158273;27;20422;-78
2022/11/29 12:35:47;;;;;;;1.00;0.47;;;7.70;99.90;;;;;;5157814;27;20860;-78
2022/11/29 12:38:34;;;;;;;4.90;1.13;;;7.70;99.90;;;;;;5144624;27;20450;-78
2022/11/29 12:41:15;;;;;;;0.73;0.73;;;7.70;99.90;;;;;;5158191;27;20430;-78
2022/11/29 12:43:54;;;;;;;0.50;0.50;;;7.70;99.90;;;;;;5158133;27;20421;-78
2022/11/29 12:46:24;;;;;;;0.77;0.77;;;7.70;99.90;;;;;;5158006;27;20806;-81
2022/11/29 12:49:00;;;;;;;1.20;1.10;;;7.70;99.90;;;;;;5157969;27;20472;-78
2022/11/29 12:51:35;;;;;;;0.80;0.53;;;7.70;99.90;;;;;;5157199;27;20448;-78
2022/11/29 12:54:32;;;;;;;0.93;0.50;;;7.70;99.90;;;;;;5157904;27;20478;-78
2022/11/29 12:57:06;;;;;;;0.40;0.30;;;7.70;99.90;;;;;;5157578;27;20905;-81
2022/11/29 12:59:49;;;;;;;0.57;0.57;;;7.70;99.90;;;;;;5157818;27;20455;-80
2022/11/29 13:02:25;;;;;;;0.47;0.40;;;7.60;99.90;;;;;;5158022;27;20430;-78
2022/11/29 13:04:59;;;;;;;0.60;0.60;;;7.60;99.90;;;;;;5157633;27;20902;-78
2022/11/29 13:07:35;;;;;;;0.70;0.70;;;7.50;99.90;;;;;;5157680;27;20426;-78
2022/11/29 13:10:21;;;;;;;2.00;0.43;;;7.50;99.90;;;;;;5157550;27;20466;-79
2022/11/29 13:12:52;;;;;;;0.87;0.80;;;7.50;99.90;;;;;;5157563;27;20826;-79
2022/11/29 13:15:22;;;;;;;0.50;0.50;;;7.50;99.90;;;;;;5157192;27;20466;-79
2022/11/29 13:18:00;;;;;;;1.13;1.03;;;7.50;99.90;;;;;;5157422;27;20430;-79
2022/11/29 13:20:35;;;;;;;0.80;0.80;;;7.50;99.90;;;;;;5157012;27;20465;-79
2022/11/29 13:23:11;;;;;;;2.27;0.70;;;7.50;99.90;;;;;;5157382;27;20517;-79
2022/11/29 13:25:39;;;;;;;1.70;1.60;;;7.60;99.90;;;;;;5156966;27;20976;-79
2022/11/29 13:28:10;;;;;;;0.90;0.60;;;7.60;99.90;;;;;;5156924;27;20519;-79
2022/11/29 13:30:39;;;;;;;0.63;0.63;;;7.60;99.90;;;;;;5157131;27;20462;-79
2022/11/29 13:33:16;;;;;;;1.43;1.33;;;7.60;99.90;;;;;;5156820;27;20941;-79
2022/11/29 13:35:49;;;;;;;1.33;0.90;;;7.50;99.90;;;;;;5156533;27;20987;-79
2022/11/29 13:38:22;;;;;;;0.80;0.60;;;7.50;99.90;;;;;;5156727;27;20920;-79
2022/11/29 13:40:56;;;;;;;1.53;0.60;;;7.50;99.90;;;;;;5156985;27;20434;-79
2022/11/29 13:43:29;;;;;;;2.67;0.40;;;7.50;99.90;;;;;;5156940;27;20425;-79
2022/11/29 13:46:06;;;;;;;0.97;0.87;;;7.50;99.90;;;;;;5156861;27;20568;-80
2022/11/29 13:48:36;;;;;;;1.47;0.80;;;7.60;99.90;;;;;;5154247;27;20437;-80